Lake Fork, Illinois
Current Conditions -  °F | °C
As of 12:55 PM on Friday 24 Oct 2014 (Local Time) from KAAA Reporting Station
Scattered Clouds Scattered Clouds  
Wind Chill: 65°   Ceiling: Unl
Heat Index: 65°   Visibility: 10mi
Dew Point: 56°   Wind: 5mph
Humidity: 71%   Direction: 230°SW
Pressure: 30.05"   Gusts: NA
Location:  39.97°N, 89.35°W
Report Text: KAAA 241755Z AUTO 23004KT 10SM SCT017 19/13 A3005 RMK AO2 T01860132 10188 20065
Loading
Personal Weather Stations






























Interactive Weather Map New forecast layout! Learn more

10-Day Weather Forecast

Advertisements
Track Severe Weather on mobile